Time;durP1;ratioP1;P1;durP2;ratioP2;P2;SDS_P1;SDS_P2;PMS_P1;PMS_P2;Temp;Humidity;BMP_temperature;BMP_pressure;BME280_temperature;BME280_humidity;BME280_pressure;Samples;Min_cycle;Max_cycle;Signal;HPM_P1;HPM_P2
2023/09/14 15:47:55;;;;;;;3.20;1.53;;;24.10;18.30;;;;;;4988225;28;20841;-71
2023/09/14 15:50:41;;;;;;;4.50;2.00;;;24.00;20.00;;;;;;4991447;28;20480;-71
2023/09/14 15:53:27;;;;;;;4.33;2.07;;;24.00;20.10;;;;;;4979180;28;21226;-71
2023/09/14 15:56:13;;;;;;;4.80;1.90;;;24.00;19.50;;;;;;5004463;28;20575;-71
2023/09/14 15:58:58;;;;;;;4.70;2.00;;;24.00;18.20;;;;;;5004523;28;21018;-71
2023/09/14 16:01:44;;;;;;;3.27;1.57;;;23.90;18.10;;;;;;5003593;28;20499;-70
2023/09/14 16:04:31;;;;;;;4.07;1.40;;;23.80;19.40;;;;;;5000089;28;20616;-70
2023/09/14 16:07:17;;;;;;;3.63;1.20;;;23.70;19.90;;;;;;5003723;28;20487;-70
2023/09/14 16:10:04;;;;;;;6.73;1.70;;;23.60;20.10;;;;;;5003315;28;20982;-71
2023/09/14 16:12:50;;;;;;;7.97;2.03;;;23.50;20.50;;;;;;4993344;28;20990;-71
2023/09/14 16:15:36;;;;;;;7.27;1.60;;;23.50;20.10;;;;;;5000829;28;20450;-70
2023/09/14 16:18:21;;;;;;;5.03;1.90;;;23.40;20.40;;;;;;5001995;28;20472;-71
2023/09/14 16:21:08;;;;;;;6.87;1.97;;;23.30;20.90;;;;;;5005040;28;20975;-71
2023/09/14 16:23:54;;;;;;;6.50;1.93;;;23.30;20.50;;;;;;5005514;28;20447;-71
2023/09/14 16:26:41;;;;;;;4.53;2.00;;;23.20;21.20;;;;;;5004837;28;20461;-71
2023/09/14 16:29:26;;;;;;;10.77;1.90;;;23.10;21.90;;;;;;5002773;28;20952;-71
2023/09/14 16:32:12;;;;;;;4.60;1.60;;;23.00;23.30;;;;;;4999117;28;20545;-71
2023/09/14 16:34:58;;;;;;;4.17;1.67;;;22.90;26.10;;;;;;5005039;28;20505;-71
2023/09/14 16:37:45;;;;;;;9.03;1.97;;;22.60;27.10;;;;;;5001949;28;20472;-71
2023/09/14 16:40:30;;;;;;;6.00;2.07;;;22.40;28.40;;;;;;4998799;28;20441;-71
2023/09/14 16:43:16;;;;;;;7.60;2.33;;;22.10;33.70;;;;;;5002878;28;20797;-71
2023/09/14 16:46:02;;;;;;;4.57;1.53;;;21.80;37.90;;;;;;5000782;28;20587;-71
2023/09/14 16:48:49;;;;;;;3.63;1.70;;;21.60;38.50;;;;;;4998311;28;20838;-71
2023/09/14 16:51:35;;;;;;;3.97;1.77;;;21.30;42.20;;;;;;4999321;28;20827;-71
2023/09/14 16:54:23;;;;;;;4.00;1.77;;;21.10;44.90;;;;;;4996909;28;20415;-71
2023/09/14 16:57:09;;;;;;;4.10;1.70;;;20.90;52.50;;;;;;4998938;28;21036;-70
2023/09/14 16:59:54;;;;;;;5.67;1.67;;;20.60;57.00;;;;;;4997584;28;20508;-71
2023/09/14 17:02:40;;;;;;;5.13;2.67;;;20.40;62.10;;;;;;4992231;28;20453;-70
2023/09/14 17:05:26;;;;;;;11.60;1.90;;;20.30;65.20;;;;;;4993596;28;20456;-71
2023/09/14 17:08:12;;;;;;;5.50;1.90;;;20.00;67.20;;;;;;4997053;28;20484;-71
2023/09/14 17:10:59;;;;;;;6.03;1.50;;;19.80;70.60;;;;;;5000246;28;21069;-70
2023/09/14 17:13:44;;;;;;;5.30;2.30;;;19.60;73.90;;;;;;5000698;28;20937;-70
2023/09/14 17:16:30;;;;;;;4.57;1.63;;;19.50;74.70;;;;;;4994508;28;20987;-71
2023/09/14 17:19:16;;;;;;;4.23;1.50;;;19.30;77.40;;;;;;4994135;28;21440;-72
2023/09/14 17:22:04;;;;;;;4.43;1.70;;;19.10;79.60;;;;;;4992995;28;20475;-71
2023/09/14 17:24:50;;;;;;;4.57;2.00;;;19.00;81.10;;;;;;5003081;28;20431;-71
2023/09/14 17:27:37;;;;;;;2.73;1.63;;;18.80;83.00;;;;;;5000052;28;20924;-71
2023/09/14 17:30:23;;;;;;;3.40;1.90;;;18.60;86.10;;;;;;5006525;28;20471;-71
2023/09/14 17:33:09;;;;;;;3.80;1.70;;;18.50;89.40;;;;;;5008255;28;20967;-70
2023/09/14 17:35:54;;;;;;;3.53;1.70;;;18.20;90.60;;;;;;5006069;28;20810;-71
2023/09/14 17:38:40;;;;;;;6.13;1.93;;;18.10;91.30;;;;;;5009302;28;20984;-70
2023/09/14 17:41:26;;;;;;;13.30;1.97;;;18.00;92.00;;;;;;5009591;28;20931;-71
2023/09/14 17:44:14;;;;;;;7.93;1.77;;;17.80;92.30;;;;;;5004749;28;20661;-71
2023/09/14 17:46:59;;;;;;;5.50;1.90;;;17.80;92.80;;;;;;5009047;28;20448;-72
2023/09/14 17:49:45;;;;;;;4.17;1.93;;;17.60;93.30;;;;;;5004577;28;20453;-70
2023/09/14 17:52:31;;;;;;;10.27;2.03;;;17.40;94.20;;;;;;5002453;28;20467;-69
2023/09/14 17:55:16;;;;;;;3.60;2.00;;;17.30;95.20;;;;;;5001924;28;20451;-71
2023/09/14 17:58:02;;;;;;;4.43;1.97;;;17.20;95.90;;;;;;4998889;28;20891;-71
2023/09/14 18:00:49;;;;;;;6.20;2.10;;;17.10;96.80;;;;;;4995509;28;20774;-71
2023/09/14 18:03:35;;;;;;;5.80;2.20;;;17.10;97.90;;;;;;5001459;28;20458;-69
2023/09/14 18:06:21;;;;;;;4.60;1.80;;;17.10;97.60;;;;;;5001698;28;20436;-72
2023/09/14 18:09:07;;;;;;;5.43;1.70;;;17.00;97.50;;;;;;5003920;28;20551;-72
2023/09/14 18:11:52;;;;;;;11.07;2.77;;;17.00;97.20;;;;;;5007935;28;20421;-71
2023/09/14 18:14:38;;;;;;;5.60;1.80;;;16.80;97.80;;;;;;5005376;28;20815;-70
2023/09/14 18:17:25;;;;;;;4.10;2.13;;;16.90;97.80;;;;;;5000450;28;20820;-71
2023/09/14 18:20:12;;;;;;;4.60;1.90;;;16.70;98.20;;;;;;5002506;28;20586;-71
2023/09/14 18:22:58;;;;;;;6.67;3.30;;;16.60;98.80;;;;;;5006547;28;20839;-72
2023/09/14 18:25:44;;;;;;;7.53;2.00;;;16.50;99.40;;;;;;5006569;28;21067;-70
2023/09/14 18:28:30;;;;;;;4.83;1.87;;;16.40;99.90;;;;;;4996647;28;20514;-70
2023/09/14 18:31:17;;;;;;;4.10;2.20;;;16.20;99.90;;;;;;4999619;28;20668;-71
2023/09/14 18:34:05;;;;;;;6.47;1.70;;;16.20;99.90;;;;;;5002317;28;21142;-71
2023/09/14 18:36:50;;;;;;;6.23;1.97;;;16.20;99.90;;;;;;4999430;28;21138;-71
2023/09/14 18:39:36;;;;;;;6.40;1.93;;;16.20;99.90;;;;;;4999535;28;20582;-71
2023/09/14 18:42:22;;;;;;;4.43;1.80;;;16.20;99.90;;;;;;5001392;28;20455;-71
2023/09/14 18:45:10;;;;;;;17.90;2.60;;;16.10;99.90;;;;;;4994508;28;20445;-72
2023/09/14 18:47:56;;;;;;;6.87;1.93;;;16.00;99.90;;;;;;4998986;28;20478;-72
2023/09/14 18:50:43;;;;;;;2.97;1.70;;;16.00;99.90;;;;;;5003156;28;20562;-69
2023/09/14 18:53:29;;;;;;;10.10;2.50;;;16.00;99.90;;;;;;5001454;28;20459;-71
2023/09/14 18:56:14;;;;;;;5.03;2.10;;;16.00;99.90;;;;;;4998265;28;20573;-71
2023/09/14 18:59:00;;;;;;;7.17;2.33;;;16.00;99.90;;;;;;4998405;28;20485;-71
2023/09/14 19:01:48;;;;;;;3.50;1.97;;;16.00;99.90;;;;;;5001287;28;20446;-70
2023/09/14 19:04:33;;;;;;;3.87;1.83;;;16.00;99.90;;;;;;4998687;28;20961;-70
2023/09/14 19:07:21;;;;;;;5.73;2.10;;;16.00;99.90;;;;;;5006653;28;20473;-71
2023/09/14 19:10:08;;;;;;;3.80;2.10;;;16.00;99.90;;;;;;5002906;28;20517;-70
2023/09/14 19:12:54;;;;;;;8.50;1.53;;;15.80;99.90;;;;;;5002144;28;20417;-71
2023/09/14 19:15:39;;;;;;;3.90;1.60;;;15.80;99.90;;;;;;5002932;28;21034;-69
2023/09/14 19:18:25;;;;;;;5.17;1.67;;;15.80;99.90;;;;;;5002250;28;20464;-71
2023/09/14 19:21:11;;;;;;;5.03;1.50;;;15.80;99.90;;;;;;4997845;28;20439;-71
2023/09/14 19:23:58;;;;;;;3.90;2.10;;;15.80;99.90;;;;;;5006638;28;20454;-71
2023/09/14 19:26:44;;;;;;;11.40;2.17;;;15.80;99.90;;;;;;5005890;28;20453;-72
2023/09/14 19:29:29;;;;;;;3.57;1.50;;;15.80;99.90;;;;;;5008700;28;20442;-70
2023/09/14 19:32:15;;;;;;;4.17;1.57;;;15.80;99.90;;;;;;5004690;28;20927;-71
2023/09/14 19:35:01;;;;;;;10.20;2.30;;;15.60;99.90;;;;;;5003800;28;20540;-71
2023/09/14 19:37:47;;;;;;;8.97;2.40;;;15.50;99.90;;;;;;5007976;28;20830;-71
2023/09/14 19:40:34;;;;;;;6.40;3.60;;;15.60;99.90;;;;;;5008750;28;20478;-70
2023/09/14 19:43:20;;;;;;;4.83;2.33;;;15.40;99.90;;;;;;5007471;28;20434;-71
2023/09/14 19:46:05;;;;;;;7.53;3.00;;;15.40;99.90;;;;;;5004206;28;22349;-71
2023/09/14 19:48:51;;;;;;;5.30;1.90;;;15.40;99.90;;;;;;5000330;28;20856;-71
2023/09/14 19:51:36;;;;;;;3.77;1.90;;;15.40;99.90;;;;;;5001654;28;20529;-71
2023/09/14 19:54:22;;;;;;;4.27;2.20;;;15.30;99.90;;;;;;5006706;28;20446;-71
2023/09/14 19:57:10;;;;;;;5.47;2.50;;;15.40;99.90;;;;;;5004014;28;20464;-69
2023/09/14 19:59:55;;;;;;;6.03;1.80;;;15.30;99.90;;;;;;5001743;28;20477;-71
2023/09/14 20:02:41;;;;;;;5.60;1.80;;;15.20;99.90;;;;;;5006652;28;20428;-71
2023/09/14 20:05:27;;;;;;;5.37;1.93;;;15.10;99.90;;;;;;5000437;28;20670;-71
2023/09/14 20:08:12;;;;;;;5.57;1.73;;;15.10;99.90;;;;;;5008497;28;20517;-70
2023/09/14 20:10:59;;;;;;;11.83;2.77;;;15.00;99.90;;;;;;5005019;28;20495;-71
2023/09/14 20:13:47;;;;;;;4.57;2.40;;;15.00;99.90;;;;;;5000425;28;20421;-70
2023/09/14 20:16:32;;;;;;;3.33;1.67;;;14.90;99.90;;;;;;5004618;28;20457;-70
2023/09/14 20:19:18;;;;;;;3.67;2.03;;;14.90;99.90;;;;;;5005970;28;20452;-73
2023/09/14 20:22:04;;;;;;;10.73;2.60;;;14.80;99.90;;;;;;5000754;28;20555;-71
2023/09/14 20:24:50;;;;;;;9.20;2.83;;;14.70;99.90;;;;;;5005262;28;20478;-70
2023/09/14 20:27:36;;;;;;;5.00;2.17;;;14.80;99.90;;;;;;5005610;28;20487;-71
2023/09/14 20:30:23;;;;;;;5.83;2.57;;;14.90;99.90;;;;;;5004707;28;20774;-70
2023/09/14 20:33:09;;;;;;;4.77;2.10;;;15.00;99.90;;;;;;5007872;28;20437;-71
2023/09/14 20:35:54;;;;;;;5.13;1.97;;;15.10;99.90;;;;;;4997820;28;20447;-71
2023/09/14 20:38:41;;;;;;;4.73;2.20;;;15.00;99.90;;;;;;4997636;28;20459;-71
2023/09/14 20:41:30;;;;;;;4.00;2.10;;;15.00;99.90;;;;;;5007471;28;20436;-70
2023/09/14 20:44:16;;;;;;;5.27;2.30;;;15.00;99.90;;;;;;5001185;28;20521;-71
2023/09/14 20:47:03;;;;;;;7.23;1.87;;;14.80;99.90;;;;;;5008088;28;20467;-70
2023/09/14 20:49:49;;;;;;;3.87;2.07;;;14.80;99.90;;;;;;5004145;28;20862;-71
2023/09/14 20:52:35;;;;;;;5.43;2.47;;;14.70;99.90;;;;;;4999381;28;20450;-71
2023/09/14 20:55:23;;;;;;;4.60;1.90;;;14.60;99.90;;;;;;5005883;28;20437;-71
2023/09/14 20:58:08;;;;;;;8.63;2.10;;;14.70;99.90;;;;;;4992983;28;21968;-71
2023/09/14 21:00:54;;;;;;;3.03;1.77;;;14.70;99.90;;;;;;4999560;28;20841;-70
2023/09/14 21:03:42;;;;;;;5.87;2.33;;;14.60;99.90;;;;;;5000986;28;20532;-70
2023/09/14 21:06:28;;;;;;;5.37;2.20;;;14.50;99.90;;;;;;4995597;28;20471;-71
2023/09/14 21:09:13;;;;;;;5.30;1.83;;;14.50;99.90;;;;;;4997406;28;20449;-70
2023/09/14 21:11:59;;;;;;;6.47;2.20;;;14.40;99.90;;;;;;4996321;28;20789;-71
2023/09/14 21:14:45;;;;;;;6.27;2.43;;;14.40;99.90;;;;;;4998090;28;20419;-69
2023/09/14 21:17:31;;;;;;;5.80;1.80;;;14.50;99.90;;;;;;4997974;28;20465;-71
2023/09/14 21:20:18;;;;;;;7.23;3.00;;;14.60;99.90;;;;;;4999687;28;21468;-70
2023/09/14 21:23:04;;;;;;;3.97;2.30;;;14.60;99.90;;;;;;4995664;28;20442;-71
2023/09/14 21:25:56;;;;;;;5.50;1.97;;;14.60;99.90;;;;;;4999429;28;20412;-71
2023/09/14 21:28:41;;;;;;;3.37;2.17;;;14.50;99.90;;;;;;4998426;28;20513;-71
2023/09/14 21:31:27;;;;;;;7.90;1.87;;;14.40;99.90;;;;;;5002629;28;20449;-71
2023/09/14 21:34:13;;;;;;;5.03;1.97;;;14.30;99.90;;;;;;4998089;28;20528;-70
2023/09/14 21:37:01;;;;;;;4.70;2.60;;;14.20;99.90;;;;;;5003334;28;20609;-71
2023/09/14 21:39:46;;;;;;;6.57;2.03;;;14.20;99.90;;;;;;5001214;28;20497;-70
2023/09/14 21:42:32;;;;;;;5.57;1.80;;;14.30;99.90;;;;;;4998643;28;20444;-70
2023/09/14 21:45:18;;;;;;;3.67;2.10;;;14.50;99.90;;;;;;4998737;28;20621;-70
2023/09/14 21:48:04;;;;;;;4.50;2.13;;;14.50;99.90;;;;;;5008878;23;20616;-76
2023/09/14 21:50:50;;;;;;;4.77;2.10;;;14.50;99.90;;;;;;4977732;28;20446;-78
2023/09/14 21:53:37;;;;;;;7.17;2.40;;;14.30;99.90;;;;;;4963801;28;20436;-78
2023/09/14 21:56:22;;;;;;;4.40;1.73;;;14.30;99.90;;;;;;4964761;28;20455;-78
2023/09/14 21:59:08;;;;;;;4.13;1.97;;;14.40;99.90;;;;;;4974981;28;20475;-78
2023/09/14 22:01:54;;;;;;;5.87;1.83;;;14.40;99.90;;;;;;4979065;28;20509;-77
2023/09/14 22:04:40;;;;;;;4.30;1.83;;;14.50;99.90;;;;;;4962945;28;20469;-78
2023/09/14 22:07:25;;;;;;;4.10;1.87;;;14.50;99.90;;;;;;4973786;28;20471;-78
2023/09/14 22:10:12;;;;;;;2.97;1.80;;;14.40;99.90;;;;;;4971802;28;20470;-77
2023/09/14 22:12:59;;;;;;;5.60;2.30;;;14.30;99.90;;;;;;4963109;28;20476;-77
2023/09/14 22:15:45;;;;;;;5.53;2.40;;;14.20;99.90;;;;;;4967576;28;20456;-78
2023/09/14 22:18:31;;;;;;;5.80;2.30;;;14.10;99.90;;;;;;4972160;28;20474;-77
2023/09/14 22:21:20;;;;;;;6.20;2.33;;;14.20;99.90;;;;;;4972870;28;20574;-78
2023/09/14 22:24:07;;;;;;;4.30;2.40;;;14.20;99.90;;;;;;4966333;28;20451;-77
2023/09/14 22:26:54;;;;;;;7.20;2.37;;;14.30;99.90;;;;;;4967414;28;20446;-78
2023/09/14 22:29:40;;;;;;;3.57;1.83;;;14.30;99.90;;;;;;4969629;28;20427;-77
2023/09/14 22:32:25;;;;;;;4.93;1.70;;;14.30;99.90;;;;;;4960174;28;20451;-78
2023/09/14 22:35:11;;;;;;;3.50;2.17;;;14.20;99.90;;;;;;4978187;28;20574;-77
2023/09/14 22:37:57;;;;;;;5.43;2.20;;;14.00;99.90;;;;;;4967423;28;21141;-78
2023/09/14 22:40:43;;;;;;;5.40;2.30;;;13.90;99.90;;;;;;4970189;28;20482;-78
2023/09/14 22:43:30;;;;;;;4.93;2.50;;;13.90;99.90;;;;;;4971750;28;20436;-77
2023/09/14 22:46:17;;;;;;;5.33;1.80;;;13.90;99.90;;;;;;4962114;28;20429;-77
2023/09/14 22:49:04;;;;;;;3.67;1.90;;;13.80;99.90;;;;;;4968434;28;20496;-77
2023/09/14 22:51:49;;;;;;;5.03;1.80;;;13.70;99.90;;;;;;4977043;28;20526;-77
2023/09/14 22:54:35;;;;;;;3.07;1.50;;;13.80;99.90;;;;;;4966582;28;20475;-77
2023/09/14 22:57:21;;;;;;;4.23;2.10;;;13.60;99.90;;;;;;4967094;28;20430;-77
2023/09/14 23:00:10;;;;;;;7.20;2.37;;;13.60;99.90;;;;;;4961447;28;21017;-77
2023/09/14 23:02:55;;;;;;;4.27;2.37;;;13.50;99.90;;;;;;4966981;28;20809;-78
2023/09/14 23:05:41;;;;;;;7.47;2.20;;;13.50;99.90;;;;;;4970213;28;20425;-77
2023/09/14 23:08:27;;;;;;;5.70;2.50;;;13.50;99.90;;;;;;4979008;28;20473;-77
2023/09/14 23:11:20;;;;;;;3.70;2.00;;;13.50;99.90;;;;;;4975638;28;21237;-78
2023/09/14 23:14:06;;;;;;;4.63;2.40;;;13.60;99.90;;;;;;4980805;28;20436;-78
2023/09/14 23:16:54;;;;;;;7.27;1.77;;;13.70;99.90;;;;;;4969639;28;20471;-78
2023/09/14 23:19:40;;;;;;;6.53;2.20;;;13.80;99.90;;;;;;4972343;28;20495;-78
2023/09/14 23:22:26;;;;;;;4.30;1.73;;;13.80;99.90;;;;;;4985346;28;20425;-78
2023/09/14 23:25:14;;;;;;;6.80;2.57;;;13.80;99.90;;;;;;4962149;28;20513;-77
2023/09/14 23:28:02;;;;;;;3.37;1.77;;;13.90;99.90;;;;;;4964910;28;20575;-77
2023/09/14 23:30:49;;;;;;;7.40;2.77;;;13.80;99.90;;;;;;4964882;28;20419;-77
2023/09/14 23:33:35;;;;;;;3.80;1.73;;;13.70;99.90;;;;;;4978428;28;20819;-77
2023/09/14 23:36:21;;;;;;;4.30;1.93;;;13.70;99.90;;;;;;4961976;28;20455;-78
2023/09/14 23:39:08;;;;;;;8.03;2.43;;;13.70;99.90;;;;;;4965360;28;20470;-77
2023/09/14 23:41:54;;;;;;;4.87;2.50;;;13.50;99.90;;;;;;4966546;28;20985;-77
2023/09/14 23:44:40;;;;;;;4.50;2.33;;;13.60;99.90;;;;;;4969938;28;20981;-77
2023/09/14 23:47:25;;;;;;;8.93;2.60;;;13.70;99.90;;;;;;4976246;28;20481;-77
2023/09/14 23:50:13;;;;;;;4.43;2.10;;;13.70;99.90;;;;;;4972927;28;20485;-77
2023/09/14 23:52:59;;;;;;;5.33;2.47;;;13.70;99.90;;;;;;4973646;28;20977;-77
2023/09/14 23:55:45;;;;;;;6.63;2.27;;;13.60;99.90;;;;;;4975355;28;20532;-77
2023/09/14 23:58:32;;;;;;;5.23;2.00;;;13.60;99.90;;;;;;4971981;28;20479;-77
